createdAt,value
2022-09-28T00:03:33.550Z,3
2022-09-28T00:05:33.663Z,4
2022-09-28T00:07:33.792Z,5
2022-09-28T00:11:33.982Z,5
2022-09-28T00:13:34.108Z,4
2022-09-28T00:15:34.218Z,4
2022-09-28T00:17:34.388Z,4
2022-09-28T00:19:34.458Z,4
2022-09-28T00:21:34.560Z,4
2022-09-28T00:23:34.678Z,4
2022-09-28T00:25:34.913Z,4
2022-09-28T00:29:34.977Z,3
2022-09-28T00:31:35.134Z,2
2022-09-28T00:35:35.274Z,2
2022-09-28T00:37:35.519Z,2
2022-09-28T00:39:35.499Z,2
2022-09-28T00:41:35.610Z,2
2022-09-28T00:43:35.726Z,2
2022-09-28T00:45:35.855Z,2
2022-09-28T00:49:36.043Z,2
2022-09-28T00:51:36.149Z,2
2022-09-28T00:53:36.235Z,2
2022-09-28T00:55:36.340Z,2
2022-09-28T00:57:36.498Z,1
2022-09-28T00:59:36.556Z,2
2022-09-28T01:01:36.668Z,2
2022-09-28T01:03:36.901Z,2
2022-09-28T01:05:36.886Z,2
2022-09-28T01:07:36.981Z,3
2022-09-28T01:09:37.076Z,3
2022-09-28T01:11:37.197Z,3
2022-09-28T01:13:37.293Z,3
2022-09-28T01:15:37.415Z,3
2022-09-28T01:17:37.643Z,4
2022-09-28T01:19:37.728Z,4
2022-09-28T01:21:37.711Z,3
2022-09-28T01:23:37.799Z,3
2022-09-28T01:25:37.890Z,3
2022-09-28T01:27:37.991Z,3
2022-09-28T01:29:38.079Z,2
2022-09-28T01:33:38.296Z,2
2022-09-28T01:43:38.791Z,2
2022-09-28T01:45:39.031Z,2
2022-09-28T01:47:38.996Z,2
2022-09-28T01:49:39.089Z,2
2022-09-28T01:51:39.192Z,2
2022-09-28T01:57:39.541Z,2
2022-09-28T01:59:39.595Z,2
2022-09-28T02:01:39.752Z,2
2022-09-28T02:05:39.887Z,2
2022-09-28T02:07:39.974Z,2
2022-09-28T02:09:40.103Z,2
2022-09-28T02:11:40.176Z,2
2022-09-28T02:13:40.280Z,2
2022-09-28T02:17:40.459Z,2
2022-09-28T02:19:40.584Z,2
2022-09-28T02:21:40.673Z,3
2022-09-28T02:23:40.748Z,2
2022-09-28T02:25:40.837Z,2
2022-09-28T02:27:40.940Z,2
2022-09-28T02:31:41.236Z,2
2022-09-28T02:33:41.241Z,2
2022-09-28T02:35:41.395Z,2
2022-09-28T02:37:41.520Z,2
2022-09-28T02:39:41.517Z,2
2022-09-28T02:41:41.725Z,2
2022-09-28T02:43:41.705Z,2
2022-09-28T02:45:41.798Z,2
2022-09-28T02:47:41.868Z,2
2022-09-28T02:49:41.958Z,2
2022-09-28T02:53:42.141Z,2
2022-09-28T02:55:42.241Z,2
2022-09-28T02:57:42.326Z,2
2022-09-28T02:59:42.401Z,2
2022-09-28T03:01:42.544Z,2
2022-09-28T03:07:42.764Z,2
2022-09-28T03:09:42.871Z,2
2022-09-28T03:13:43.027Z,2
2022-09-28T03:15:47.704Z,2
2022-09-28T03:21:43.379Z,2
2022-09-28T03:23:43.460Z,2
2022-09-28T03:29:43.728Z,2
2022-09-28T03:31:43.895Z,1
2022-09-28T03:33:43.917Z,2
2022-09-28T03:39:44.191Z,2
2022-09-28T03:41:44.346Z,2
2022-09-28T03:43:44.364Z,2
2022-09-28T03:46:14.548Z,2
2022-09-28T03:52:14.878Z,3
2022-09-28T03:56:15.073Z,3
2022-09-28T03:58:15.187Z,3
2022-09-28T04:00:15.302Z,2
2022-09-28T04:02:15.537Z,2
2022-09-28T04:04:15.541Z,3
2022-09-28T04:06:15.654Z,3
2022-09-28T04:10:15.895Z,3
2022-09-28T04:12:15.997Z,3
2022-09-28T04:16:16.310Z,2
2022-09-28T04:18:16.327Z,3
2022-09-28T04:20:16.444Z,3
2022-09-28T04:22:16.547Z,3
2022-09-28T04:24:16.694Z,3
2022-09-28T04:26:16.788Z,3
2022-09-28T04:28:16.866Z,4
2022-09-28T04:30:17.030Z,5
2022-09-28T04:32:17.105Z,5
2022-09-28T04:34:17.219Z,5
2022-09-28T04:36:17.327Z,4
2022-09-28T04:38:30.690Z,4
2022-09-28T04:40:17.593Z,4
2022-09-28T04:42:17.626Z,4
2022-09-28T04:44:17.729Z,4
2022-09-28T04:46:17.884Z,4
2022-09-28T04:50:18.075Z,7
2022-09-28T04:52:18.765Z,8
2022-09-28T04:54:18.263Z,8
2022-09-28T04:56:18.369Z,8
2022-09-28T04:58:18.480Z,7
2022-09-28T05:00:18.584Z,6
2022-09-28T05:02:18.784Z,6
2022-09-28T05:04:22.391Z,7
2022-09-28T05:08:19.027Z,7
2022-09-28T05:10:19.190Z,7
2022-09-28T05:12:19.255Z,7
2022-09-28T05:16:19.482Z,7
2022-09-28T05:18:19.555Z,8
2022-09-28T05:20:19.671Z,7
2022-09-28T05:22:19.776Z,6
2022-09-28T05:26:20.010Z,5
2022-09-28T05:30:20.227Z,5
2022-09-28T05:32:20.293Z,5
2022-09-28T05:34:20.451Z,5
2022-09-28T05:36:20.528Z,5
2022-09-28T05:38:20.597Z,5
2022-09-28T05:40:20.720Z,4
2022-09-28T05:42:20.790Z,5
2022-09-28T05:44:20.895Z,5
2022-09-28T05:46:21.038Z,5
2022-09-28T05:48:21.105Z,4
2022-09-28T05:50:21.203Z,4
2022-09-28T05:52:21.296Z,4
2022-09-28T05:54:21.381Z,4
2022-09-28T05:56:21.601Z,4
2022-09-28T05:58:21.591Z,4
2022-09-28T06:00:21.677Z,5
2022-09-28T06:02:21.834Z,4
2022-09-28T06:04:21.877Z,5
2022-09-28T06:06:21.960Z,5
2022-09-28T06:08:22.066Z,5
2022-09-28T06:10:22.156Z,5
2022-09-28T06:12:22.268Z,5
2022-09-28T06:14:22.334Z,5
2022-09-28T06:16:22.570Z,5
2022-09-28T06:18:22.524Z,5
2022-09-28T06:22:22.717Z,4
2022-09-28T06:24:22.807Z,4
2022-09-28T06:28:23.102Z,4
2022-09-28T06:30:23.211Z,4
2022-09-28T06:32:23.159Z,4
2022-09-28T06:36:23.346Z,5
2022-09-28T06:38:23.480Z,4
2022-09-28T06:40:23.578Z,4
2022-09-28T06:44:23.701Z,4
2022-09-28T06:46:23.832Z,4
2022-09-28T06:48:23.893Z,5
2022-09-28T06:50:24.046Z,4
2022-09-28T06:52:24.065Z,5
2022-09-28T06:54:24.147Z,6
2022-09-28T06:56:24.239Z,5
2022-09-28T06:58:24.299Z,5
2022-09-28T07:00:24.398Z,5
2022-09-28T07:02:24.605Z,5
2022-09-28T07:04:24.563Z,5
2022-09-28T07:06:24.657Z,5
2022-09-28T07:08:24.764Z,5
2022-09-28T07:10:24.836Z,6
2022-09-28T07:12:54.973Z,5
2022-09-28T07:14:55.316Z,5
2022-09-28T07:17:10.251Z,5
2022-09-28T07:18:55.317Z,5
2022-09-28T07:20:55.426Z,5
2022-09-28T07:24:55.660Z,5
2022-09-28T07:26:55.755Z,5
2022-09-28T07:28:56.047Z,4
2022-09-28T07:30:56.053Z,4
2022-09-28T07:32:56.098Z,4
2022-09-28T07:34:58.844Z,4
2022-09-28T07:36:56.393Z,5
2022-09-28T07:38:56.446Z,4
2022-09-28T07:42:56.670Z,4
2022-09-28T07:44:56.787Z,3
2022-09-28T07:46:56.900Z,3
2022-09-28T07:50:57.108Z,3
2022-09-28T07:52:57.225Z,3
2022-09-28T07:54:57.325Z,3
2022-09-28T07:56:57.439Z,3
2022-09-28T07:58:57.526Z,3
2022-09-28T08:00:57.658Z,3
2022-09-28T08:04:57.842Z,2
2022-09-28T08:06:57.971Z,3
2022-09-28T08:08:58.054Z,3
2022-09-28T08:14:58.420Z,3
2022-09-28T08:16:58.472Z,3
2022-09-28T08:18:58.578Z,4
2022-09-28T08:20:58.670Z,3
2022-09-28T08:22:58.778Z,3
2022-09-28T08:24:58.871Z,3
2022-09-28T08:28:59.071Z,3
2022-09-28T08:30:59.247Z,3
2022-09-28T08:32:59.255Z,3
2022-09-28T08:34:59.370Z,3
2022-09-28T08:38:59.569Z,3
2022-09-28T08:40:59.826Z,3
2022-09-28T08:42:59.780Z,4
2022-09-28T08:44:59.858Z,3
2022-09-28T08:49:24.205Z,4
2022-09-28T08:51:00.145Z,3
2022-09-28T08:53:00.237Z,4
2022-09-28T08:55:00.339Z,4
2022-09-28T08:57:00.411Z,4
2022-09-28T08:59:00.490Z,3
2022-09-28T09:01:00.648Z,4
2022-09-28T09:03:00.705Z,4
2022-09-28T09:05:00.776Z,3
2022-09-28T09:07:00.873Z,4
2022-09-28T09:09:00.971Z,4
2022-09-28T09:11:01.028Z,4
2022-09-28T09:13:01.163Z,3
2022-09-28T09:17:01.390Z,3
2022-09-28T09:19:01.369Z,3
2022-09-28T09:21:01.457Z,3
2022-09-28T09:23:01.545Z,2
2022-09-28T09:25:01.638Z,2
2022-09-28T09:27:01.775Z,2
2022-09-28T09:29:01.823Z,1
2022-09-28T09:31:01.933Z,1
2022-09-28T09:33:01.958Z,1
2022-09-28T09:35:02.013Z,1
2022-09-28T09:37:02.104Z,1
2022-09-28T09:43:32.457Z,1
2022-09-28T09:45:32.603Z,1
2022-09-28T09:51:32.892Z,1
2022-09-28T09:53:37.600Z,1
2022-09-28T09:57:33.225Z,1
2022-09-28T10:05:33.649Z,1
2022-09-28T10:09:33.857Z,1
2022-09-28T10:11:33.969Z,1
2022-09-28T10:13:34.130Z,1
2022-09-28T10:15:34.191Z,1
2022-09-28T10:17:34.308Z,2
2022-09-28T10:19:34.395Z,1
2022-09-28T10:21:34.516Z,1
2022-09-28T10:23:34.624Z,1
2022-09-28T10:25:34.725Z,1
2022-09-28T10:29:34.947Z,1
2022-09-28T10:31:35.107Z,1
2022-09-28T10:33:35.144Z,1
2022-09-28T10:35:35.248Z,1
2022-09-28T10:39:35.449Z,1
2022-09-28T10:41:35.569Z,1
2022-09-28T10:43:35.622Z,1
2022-09-28T10:45:35.731Z,1
2022-09-28T10:51:36.021Z,1
2022-09-28T10:59:36.417Z,1
2022-09-28T11:01:36.570Z,1
2022-09-28T11:03:36.614Z,1
2022-09-28T11:05:36.709Z,1
2022-09-28T11:07:36.808Z,1
2022-09-28T11:11:36.954Z,1
2022-09-28T11:17:37.237Z,1
2022-09-28T11:19:37.335Z,1
2022-09-28T11:23:37.506Z,1
2022-09-28T11:27:37.701Z,2
2022-09-28T11:29:37.785Z,5
2022-09-28T11:32:08.989Z,14
2022-09-28T11:34:08.123Z,63
2022-09-28T11:36:08.152Z,38
2022-09-28T11:38:08.262Z,5
2022-09-28T11:40:08.362Z,5
2022-09-28T11:42:10.963Z,5
2022-09-28T11:44:08.573Z,2
2022-09-28T11:46:08.865Z,1
2022-09-28T11:52:09.024Z,1
2022-09-28T11:54:09.187Z,2
2022-09-28T11:56:09.299Z,3
2022-09-28T11:58:09.344Z,2
2022-09-28T12:00:09.454Z,2
2022-09-28T12:02:09.667Z,2
2022-09-28T12:04:09.674Z,1
2022-09-28T12:08:09.875Z,2
2022-09-28T12:10:09.985Z,1
2022-09-28T12:12:10.074Z,2
2022-09-28T12:14:10.204Z,7
2022-09-28T12:16:32.787Z,4
2022-09-28T12:18:10.392Z,3
2022-09-28T12:20:10.448Z,3
2022-09-28T12:22:10.559Z,4
2022-09-28T12:24:10.650Z,3
2022-09-28T12:26:10.801Z,3
2022-09-28T12:28:10.838Z,3
2022-09-28T12:34:11.170Z,2
2022-09-28T12:36:11.225Z,2
2022-09-28T12:38:11.304Z,3
2022-09-28T12:40:11.393Z,2
2022-09-28T12:42:11.485Z,3
2022-09-28T12:44:11.577Z,2
2022-09-28T12:46:12.674Z,3
2022-09-28T12:48:11.772Z,3
2022-09-28T12:50:39.027Z,3
2022-09-28T12:52:11.934Z,3
2022-09-28T12:54:12.131Z,3
2022-09-28T12:56:12.119Z,3
2022-09-28T12:58:12.204Z,3
2022-09-28T13:00:12.371Z,4
2022-09-28T13:02:12.516Z,3
2022-09-28T13:04:13.425Z,3
2022-09-28T13:06:12.549Z,3
2022-09-28T13:08:12.631Z,3
2022-09-28T13:10:12.810Z,3
2022-09-28T13:12:12.789Z,3
2022-09-28T13:14:12.917Z,4
2022-09-28T13:18:13.029Z,4
2022-09-28T13:20:13.143Z,4
2022-09-28T13:22:13.305Z,4
2022-09-28T13:24:43.322Z,4
2022-09-28T13:26:43.452Z,4
2022-09-28T13:28:43.556Z,6
2022-09-28T13:30:43.727Z,5
2022-09-28T13:32:43.792Z,5
2022-09-28T13:34:43.965Z,5
2022-09-28T13:36:47.976Z,4
2022-09-28T13:38:44.135Z,4
2022-09-28T13:40:44.293Z,4
2022-09-28T13:42:44.343Z,4
2022-09-28T13:46:44.549Z,3
2022-09-28T13:48:44.656Z,3
2022-09-28T13:50:44.746Z,3
2022-09-28T13:52:44.858Z,3
2022-09-28T13:54:45.005Z,3
2022-09-28T13:56:45.065Z,3
2022-09-28T13:58:45.158Z,3
2022-09-28T14:02:45.628Z,3
2022-09-28T14:04:45.480Z,2
2022-09-28T14:06:48.694Z,2
2022-09-28T14:08:45.668Z,2
2022-09-28T14:10:45.763Z,3
2022-09-28T14:12:45.873Z,3
2022-09-28T14:14:46.007Z,4
2022-09-28T14:16:46.076Z,3
2022-09-28T14:18:46.171Z,4
2022-09-28T14:20:46.260Z,4
2022-09-28T14:22:46.344Z,4
2022-09-28T14:24:46.446Z,4
2022-09-28T14:26:46.536Z,4
2022-09-28T14:28:46.629Z,4
2022-09-28T14:30:46.805Z,4
2022-09-28T14:32:46.828Z,4
2022-09-28T14:34:46.961Z,3
2022-09-28T14:36:46.996Z,3
2022-09-28T14:40:49.589Z,3
2022-09-28T14:42:47.312Z,3
2022-09-28T14:44:47.374Z,4
2022-09-28T14:48:47.548Z,4
2022-09-28T14:52:47.711Z,4
2022-09-28T14:54:47.833Z,4
2022-09-28T14:56:47.877Z,3
2022-09-28T15:00:48.039Z,2
2022-09-28T15:02:48.203Z,2
2022-09-28T15:04:48.280Z,2
2022-09-28T15:06:48.298Z,2
2022-09-28T15:08:48.392Z,2
2022-09-28T15:12:48.580Z,2
2022-09-28T15:14:48.710Z,2
2022-09-28T15:16:48.762Z,2
2022-09-28T15:18:48.862Z,2
2022-09-28T15:22:49.031Z,2
2022-09-28T15:25:19.152Z,2
2022-09-28T15:27:19.324Z,3
2022-09-28T15:29:19.403Z,3
2022-09-28T15:31:19.561Z,4
2022-09-28T15:33:19.587Z,4
2022-09-28T15:35:19.818Z,4
2022-09-28T15:37:19.855Z,5
2022-09-28T15:39:19.946Z,6
2022-09-28T15:41:20.071Z,7
2022-09-28T15:45:20.265Z,6
2022-09-28T15:49:20.484Z,5
2022-09-28T15:51:20.581Z,5
2022-09-28T15:53:20.686Z,6
2022-09-28T15:55:20.810Z,6
2022-09-28T15:57:20.910Z,6
2022-09-28T15:59:21.026Z,9
2022-09-28T16:01:21.154Z,7
2022-09-28T16:03:21.174Z,6
2022-09-28T16:05:21.337Z,5
2022-09-28T16:07:21.371Z,4
2022-09-28T16:09:21.481Z,5
2022-09-28T16:11:21.573Z,3
2022-09-28T16:13:21.680Z,6
2022-09-28T16:15:21.787Z,6
2022-09-28T16:19:21.999Z,7
2022-09-28T16:21:22.106Z,10
2022-09-28T16:23:22.190Z,9
2022-09-28T16:25:22.289Z,8
2022-09-28T16:27:22.520Z,8
2022-09-28T16:29:22.485Z,7
2022-09-28T16:31:22.681Z,6
2022-09-28T16:33:22.681Z,5
2022-09-28T16:35:22.766Z,4
2022-09-28T16:37:22.984Z,4
2022-09-28T16:39:22.999Z,4
2022-09-28T16:41:23.053Z,4
2022-09-28T16:43:23.153Z,3
2022-09-28T16:45:23.257Z,2
2022-09-28T16:47:23.335Z,2
2022-09-28T16:49:23.425Z,2
2022-09-28T16:51:23.499Z,5
2022-09-28T16:53:23.611Z,7
2022-09-28T16:57:23.780Z,5
2022-09-28T16:59:23.930Z,5
2022-09-28T17:01:24.029Z,4
2022-09-28T17:03:24.104Z,4
2022-09-28T17:05:24.162Z,4
2022-09-28T17:07:24.248Z,3
2022-09-28T17:09:24.353Z,4
2022-09-28T17:11:25.213Z,3
2022-09-28T17:13:24.519Z,3
2022-09-28T17:15:24.612Z,3
2022-09-28T17:19:24.843Z,3
2022-09-28T17:21:24.890Z,3
2022-09-28T17:23:24.992Z,5
2022-09-28T17:25:25.083Z,5
2022-09-28T17:27:25.161Z,4
2022-09-28T17:29:25.257Z,3
2022-09-28T17:33:25.447Z,2
2022-09-28T17:35:55.628Z,3
2022-09-28T17:37:55.701Z,2
2022-09-28T17:39:55.858Z,2
2022-09-28T17:41:55.930Z,2
2022-09-28T17:43:56.051Z,2
2022-09-28T17:45:56.163Z,2
2022-09-28T17:47:56.253Z,2
2022-09-28T17:49:56.380Z,2
2022-09-28T17:51:56.456Z,1
2022-09-28T17:53:56.551Z,2
2022-09-28T17:55:56.662Z,3
2022-09-28T17:57:56.780Z,5
2022-09-28T17:59:56.949Z,4
2022-09-28T18:02:01.519Z,4
2022-09-28T18:03:57.134Z,4
2022-09-28T18:05:57.231Z,5
2022-09-28T18:07:57.347Z,11
2022-09-28T18:09:57.470Z,9
2022-09-28T18:11:57.596Z,7
2022-09-28T18:13:57.685Z,4
2022-09-28T18:15:57.827Z,4
2022-09-28T18:19:58.072Z,4
2022-09-28T18:21:58.133Z,4
2022-09-28T18:23:58.248Z,4
2022-09-28T18:25:58.341Z,4
2022-09-28T18:29:58.563Z,4
2022-09-28T18:31:58.684Z,3
2022-09-28T18:35:58.862Z,3
2022-09-28T18:37:58.975Z,3
2022-09-28T18:39:59.058Z,3
2022-09-28T18:41:59.222Z,2
2022-09-28T18:43:59.261Z,2
2022-09-28T18:45:59.438Z,2
2022-09-28T18:47:59.457Z,2
2022-09-28T18:49:59.572Z,5
2022-09-28T18:51:59.671Z,8
2022-09-28T18:53:59.739Z,9
2022-09-28T18:55:59.855Z,10
2022-09-28T18:57:59.950Z,11
2022-09-28T19:00:00.042Z,11
2022-09-28T19:02:00.277Z,10
2022-09-28T19:04:00.231Z,8
2022-09-28T19:06:00.313Z,7
2022-09-28T19:08:00.410Z,5
2022-09-28T19:10:00.520Z,5
2022-09-28T19:12:00.607Z,4
2022-09-28T19:14:00.708Z,3
2022-09-28T19:16:00.918Z,4
2022-09-28T19:20:01.044Z,6
2022-09-28T19:22:01.146Z,7
2022-09-28T19:24:01.208Z,4
2022-09-28T19:26:01.245Z,3
2022-09-28T19:28:01.356Z,3
2022-09-28T19:30:01.457Z,2
2022-09-28T19:34:01.640Z,2
2022-09-28T19:36:01.767Z,2
2022-09-28T19:38:01.804Z,3
2022-09-28T19:40:01.873Z,3
2022-09-28T19:42:01.971Z,3
2022-09-28T19:44:02.071Z,2
2022-09-28T19:46:02.236Z,3
2022-09-28T19:48:02.255Z,3
2022-09-28T19:50:02.339Z,2
2022-09-28T19:52:12.740Z,2
2022-09-28T19:54:02.497Z,2
2022-09-28T19:56:02.607Z,2
2022-09-28T19:58:02.659Z,2
2022-09-28T20:00:03.740Z,2
2022-09-28T20:04:02.960Z,2
2022-09-28T20:08:33.205Z,3
2022-09-28T20:10:33.299Z,3
2022-09-28T20:12:33.419Z,3
2022-09-28T20:14:37.961Z,2
2022-09-28T20:16:33.642Z,3
2022-09-28T20:18:33.760Z,2
2022-09-28T20:20:33.884Z,2
2022-09-28T20:22:33.988Z,2
2022-09-28T20:24:34.156Z,1
2022-09-28T20:28:34.327Z,1
2022-09-28T20:30:34.451Z,2
2022-09-28T20:32:34.542Z,2
2022-09-28T20:34:34.706Z,2
2022-09-28T20:36:34.774Z,2
2022-09-28T20:38:34.882Z,2
2022-09-28T20:40:35.053Z,2
2022-09-28T20:44:35.222Z,1
2022-09-28T20:46:35.533Z,2
2022-09-28T20:48:35.448Z,2
2022-09-28T20:50:35.542Z,2
2022-09-28T20:52:35.644Z,1
2022-09-28T20:54:35.747Z,2
2022-09-28T20:56:35.865Z,2
2022-09-28T20:58:35.965Z,2
2022-09-28T21:00:36.074Z,2
2022-09-28T21:02:36.246Z,2
2022-09-28T21:04:36.396Z,2
2022-09-28T21:06:36.413Z,2
2022-09-28T21:08:36.519Z,2
2022-09-28T21:10:36.624Z,2
2022-09-28T21:12:36.753Z,2
2022-09-28T21:14:36.829Z,2
2022-09-28T21:16:36.923Z,2
2022-09-28T21:18:37.037Z,2
2022-09-28T21:20:37.145Z,1
2022-09-28T21:22:37.238Z,2
2022-09-28T21:24:37.337Z,2
2022-09-28T21:26:37.447Z,2
2022-09-28T21:28:37.535Z,2
2022-09-28T21:30:37.704Z,2
2022-09-28T21:32:37.747Z,2
2022-09-28T21:34:37.850Z,2
2022-09-28T21:36:37.957Z,2
2022-09-28T21:38:38.055Z,2
2022-09-28T21:40:38.200Z,2
2022-09-28T21:42:38.255Z,2
2022-09-28T21:44:38.426Z,2
2022-09-28T21:46:38.574Z,2
2022-09-28T21:48:38.565Z,2
2022-09-28T21:50:38.668Z,2
2022-09-28T21:52:38.779Z,2
2022-09-28T21:54:38.875Z,3
2022-09-28T21:56:38.986Z,3
2022-09-28T21:58:39.259Z,3
2022-09-28T22:00:39.696Z,3
2022-09-28T22:02:39.273Z,3
2022-09-28T22:04:39.358Z,4
2022-09-28T22:06:39.421Z,4
2022-09-28T22:08:39.519Z,4
2022-09-28T22:10:39.609Z,5
2022-09-28T22:14:39.847Z,4
2022-09-28T22:16:39.897Z,4
2022-09-28T22:18:40.023Z,3
2022-09-28T22:20:40.095Z,3
2022-09-28T22:22:40.186Z,3
2022-09-28T22:24:40.282Z,6
2022-09-28T22:26:40.369Z,6
2022-09-28T22:28:40.464Z,6
2022-09-28T22:30:40.572Z,4
2022-09-28T22:32:40.655Z,4
2022-09-28T22:34:40.735Z,3
2022-09-28T22:36:40.838Z,3
2022-09-28T22:38:40.915Z,3
2022-09-28T22:40:41.114Z,3
2022-09-28T22:42:41.114Z,3
2022-09-28T22:46:41.334Z,3
2022-09-28T22:48:41.380Z,2
2022-09-28T22:50:41.450Z,3
2022-09-28T22:52:41.742Z,3
2022-09-28T22:54:41.633Z,3
2022-09-28T22:56:41.722Z,3
2022-09-28T22:59:11.894Z,3
2022-09-28T23:01:12.036Z,3
2022-09-28T23:03:12.166Z,3
2022-09-28T23:05:12.219Z,2
2022-09-28T23:07:12.376Z,3
2022-09-28T23:09:12.444Z,2
2022-09-28T23:11:12.558Z,2
2022-09-28T23:13:12.660Z,2
2022-09-28T23:15:12.787Z,3
2022-09-28T23:17:12.884Z,2
2022-09-28T23:19:13.003Z,3
2022-09-28T23:23:13.209Z,3
2022-09-28T23:25:13.324Z,4
2022-09-28T23:27:13.510Z,4
2022-09-28T23:31:13.834Z,4
2022-09-28T23:33:13.776Z,4
2022-09-28T23:35:13.881Z,4
2022-09-28T23:37:13.999Z,4
2022-09-28T23:39:14.164Z,4
2022-09-28T23:43:14.340Z,4
2022-09-28T23:45:14.440Z,4
2022-09-28T23:49:14.759Z,3
2022-09-28T23:51:14.769Z,3
2022-09-28T23:53:14.883Z,3
2022-09-28T23:55:14.970Z,3
2022-09-28T23:57:15.083Z,2
2022-09-28T23:59:15.193Z,2
